sensor_id;sensor_type;location;lat;lon;timestamp;pressure;altitude;pressure_sealevel;temperature;humidity
10484;BME280;5289;42.610;23.362;2022-07-03T00:01:38;91251.06;;;16.70;100.00
10484;BME280;5289;42.610;23.362;2022-07-03T00:04:05;91256.16;;;16.66;100.00
10484;BME280;5289;42.610;23.362;2022-07-03T00:06:31;91264.66;;;16.63;100.00
10484;BME280;5289;42.610;23.362;2022-07-03T00:08:58;91268.69;;;16.61;100.00
10484;BME280;5289;42.610;23.362;2022-07-03T00:11:25;91267.09;;;16.60;100.00
10484;BME280;5289;42.610;23.362;2022-07-03T00:13:54;91272.91;;;16.57;100.00
10484;BME280;5289;42.610;23.362;2022-07-03T00:16:20;91278.78;;;16.54;100.00
10484;BME280;5289;42.610;23.362;2022-07-03T00:18:47;91280.44;;;16.50;100.00
10484;BME280;5289;42.610;23.362;2022-07-03T00:21:16;91280.69;;;16.48;100.00
10484;BME280;5289;42.610;23.362;2022-07-03T00:23:44;91282.56;;;16.48;100.00
10484;BME280;5289;42.610;23.362;2022-07-03T00:26:11;91287.91;;;16.42;100.00
10484;BME280;5289;42.610;23.362;2022-07-03T00:28:38;91283.94;;;16.40;100.00
10484;BME280;5289;42.610;23.362;2022-07-03T00:31:08;91287.97;;;16.37;100.00
10484;BME280;5289;42.610;23.362;2022-07-03T00:33:35;91289.03;;;16.36;100.00
10484;BME280;5289;42.610;23.362;2022-07-03T00:36:02;91288.81;;;16.33;100.00
10484;BME280;5289;42.610;23.362;2022-07-03T00:38:29;91287.00;;;16.28;100.00
10484;BME280;5289;42.610;23.362;2022-07-03T00:40:56;91281.16;;;16.26;100.00
10484;BME280;5289;42.610;23.362;2022-07-03T00:43:22;91277.50;;;16.22;100.00
10484;BME280;5289;42.610;23.362;2022-07-03T00:45:51;91276.97;;;16.20;100.00
10484;BME280;5289;42.610;23.362;2022-07-03T00:48:20;91263.22;;;16.18;100.00
10484;BME280;5289;42.610;23.362;2022-07-03T00:50:48;91266.13;;;16.17;100.00
10484;BME280;5289;42.610;23.362;2022-07-03T00:53:17;91259.03;;;16.12;100.00
10484;BME280;5289;42.610;23.362;2022-07-03T00:55:45;91261.16;;;16.10;100.00
10484;BME280;5289;42.610;23.362;2022-07-03T00:58:13;91264.88;;;16.09;100.00
10484;BME280;5289;42.610;23.362;2022-07-03T01:00:40;91267.03;;;16.07;100.00
10484;BME280;5289;42.610;23.362;2022-07-03T01:03:07;91261.19;;;16.05;100.00
10484;BME280;5289;42.610;23.362;2022-07-03T01:05:37;91261.47;;;16.04;100.00
10484;BME280;5289;42.610;23.362;2022-07-03T01:08:08;91259.13;;;16.02;100.00
10484;BME280;5289;42.610;23.362;2022-07-03T01:10:39;91244.22;;;16.06;100.00
10484;BME280;5289;42.610;23.362;2022-07-03T01:13:11;91254.59;;;16.03;100.00
10484;BME280;5289;42.610;23.362;2022-07-03T01:15:41;91255.38;;;16.03;100.00
10484;BME280;5289;42.610;23.362;2022-07-03T01:18:17;91249.78;;;16.05;100.00
10484;BME280;5289;42.610;23.362;2022-07-03T01:20:53;91243.69;;;16.04;100.00
10484;BME280;5289;42.610;23.362;2022-07-03T01:23:24;91233.09;;;16.04;100.00
10484;BME280;5289;42.610;23.362;2022-07-03T01:25:58;91224.94;;;16.00;100.00
10484;BME280;5289;42.610;23.362;2022-07-03T01:28:27;91224.69;;;15.97;100.00
10484;BME280;5289;42.610;23.362;2022-07-03T01:30:54;91230.81;;;15.92;100.00
10484;BME280;5289;42.610;23.362;2022-07-03T01:33:21;91233.75;;;15.91;100.00
10484;BME280;5289;42.610;23.362;2022-07-03T01:35:54;91233.22;;;15.89;100.00
10484;BME280;5289;42.610;23.362;2022-07-03T01:38:24;91235.34;;;15.87;100.00
10484;BME280;5289;42.610;23.362;2022-07-03T01:40:52;91229.84;;;15.83;100.00
10484;BME280;5289;42.610;23.362;2022-07-03T01:43:23;91228.53;;;15.81;100.00
10484;BME280;5289;42.610;23.362;2022-07-03T01:45:51;91234.38;;;15.78;100.00
10484;BME280;5289;42.610;23.362;2022-07-03T01:48:19;91248.19;;;15.75;100.00
10484;BME280;5289;42.610;23.362;2022-07-03T01:50:47;91247.66;;;15.73;100.00
10484;BME280;5289;42.610;23.362;2022-07-03T01:53:16;91252.44;;;15.71;100.00
10484;BME280;5289;42.610;23.362;2022-07-03T01:55:42;91255.38;;;15.69;100.00
10484;BME280;5289;42.610;23.362;2022-07-03T01:58:09;91251.69;;;15.70;100.00
10484;BME280;5289;42.610;23.362;2022-07-03T02:00:41;91247.97;;;15.66;100.00
10484;BME280;5289;42.610;23.362;2022-07-03T02:03:08;91246.13;;;15.67;100.00
10484;BME280;5289;42.610;23.362;2022-07-03T02:05:37;91252.47;;;15.66;100.00
10484;BME280;5289;42.610;23.362;2022-07-03T02:08:12;91246.41;;;15.65;100.00
10484;BME280;5289;42.610;23.362;2022-07-03T02:10:42;91255.69;;;15.63;100.00
10484;BME280;5289;42.610;23.362;2022-07-03T02:13:15;91255.97;;;15.61;100.00
10484;BME280;5289;42.610;23.362;2022-07-03T02:15:43;91264.19;;;15.60;100.00
10484;BME280;5289;42.610;23.362;2022-07-03T02:18:11;91266.31;;;15.57;100.00
10484;BME280;5289;42.610;23.362;2022-07-03T02:20:47;91276.69;;;15.54;100.00
10484;BME280;5289;42.610;23.362;2022-07-03T02:23:21;91270.06;;;15.51;100.00
10484;BME280;5289;42.610;23.362;2022-07-03T02:25:51;91276.38;;;15.50;100.00
10484;BME280;5289;42.610;23.362;2022-07-03T02:28:22;91285.69;;;15.48;100.00
10484;BME280;5289;42.610;23.362;2022-07-03T02:30:55;91282.25;;;15.47;100.00
10484;BME280;5289;42.610;23.362;2022-07-03T02:33:23;91285.69;;;15.48;100.00
10484;BME280;5289;42.610;23.362;2022-07-03T02:35:51;91285.44;;;15.44;100.00
10484;BME280;5289;42.610;23.362;2022-07-03T02:38:19;91288.38;;;15.43;100.00
10484;BME280;5289;42.610;23.362;2022-07-03T02:40:49;91301.59;;;15.43;100.00
10484;BME280;5289;42.610;23.362;2022-07-03T02:43:18;91307.16;;;15.41;100.00
10484;BME280;5289;42.610;23.362;2022-07-03T02:45:48;91310.09;;;15.40;100.00
10484;BME280;5289;42.610;23.362;2022-07-03T02:48:24;91308.22;;;15.40;100.00
10484;BME280;5289;42.610;23.362;2022-07-03T02:50:54;91320.97;;;15.38;100.00
10484;BME280;5289;42.610;23.362;2022-07-03T02:53:26;91317.22;;;15.39;100.00
10484;BME280;5289;42.610;23.362;2022-07-03T02:55:58;91326.25;;;15.38;100.00
10484;BME280;5289;42.610;23.362;2022-07-03T03:01:03;91329.69;;;15.39;100.00
10484;BME280;5289;42.610;23.362;2022-07-03T03:03:34;91330.22;;;15.41;100.00
10484;BME280;5289;42.610;23.362;2022-07-03T03:06:02;91345.28;;;15.45;100.00
10484;BME280;5289;42.610;23.362;2022-07-03T03:08:33;91336.81;;;15.48;100.00
10484;BME280;5289;42.610;23.362;2022-07-03T03:11:02;91342.38;;;15.52;100.00
10484;BME280;5289;42.610;23.362;2022-07-03T03:13:31;91341.53;;;15.56;100.00
10484;BME280;5289;42.610;23.362;2022-07-03T03:16:00;91336.75;;;15.64;100.00
10484;BME280;5289;42.610;23.362;2022-07-03T03:18:30;91335.38;;;15.71;100.00
10484;BME280;5289;42.610;23.362;2022-07-03T03:20:59;91336.66;;;15.79;100.00
10484;BME280;5289;42.610;23.362;2022-07-03T03:23:30;91341.88;;;15.89;100.00
10484;BME280;5289;42.610;23.362;2022-07-03T03:25:59;91329.34;;;15.99;100.00
10484;BME280;5289;42.610;23.362;2022-07-03T03:28:26;91326.84;;;16.18;100.00
10484;BME280;5289;42.610;23.362;2022-07-03T03:30:53;91313.38;;;16.43;100.00
10484;BME280;5289;42.610;23.362;2022-07-03T03:33:20;91251.53;;;17.19;100.00
10484;BME280;5289;42.610;23.362;2022-07-03T03:35:46;91180.44;;;18.19;100.00
10484;BME280;5289;42.610;23.362;2022-07-03T03:38:14;91135.50;;;18.99;100.00
10484;BME280;5289;42.610;23.362;2022-07-03T03:40:41;91112.13;;;19.68;100.00
10484;BME280;5289;42.610;23.362;2022-07-03T03:43:09;91079.13;;;20.48;100.00
10484;BME280;5289;42.610;23.362;2022-07-03T03:45:36;91053.81;;;21.54;100.00
10484;BME280;5289;42.610;23.362;2022-07-03T03:48:03;91092.81;;;22.53;100.00
10484;BME280;5289;42.610;23.362;2022-07-03T03:50:30;91219.34;;;23.34;100.00
10484;BME280;5289;42.610;23.362;2022-07-03T03:52:58;91427.63;;;24.15;100.00
10484;BME280;5289;42.610;23.362;2022-07-03T03:55:26;91727.31;;;25.05;100.00
10484;BME280;5289;42.610;23.362;2022-07-03T03:57:53;92030.41;;;25.91;100.00
10484;BME280;5289;42.610;23.362;2022-07-03T04:00:19;92261.25;;;26.51;100.00
10484;BME280;5289;42.610;23.362;2022-07-03T04:02:46;92351.78;;;27.12;100.00
10484;BME280;5289;42.610;23.362;2022-07-03T04:05:12;92406.44;;;27.81;100.00
10484;BME280;5289;42.610;23.362;2022-07-03T04:07:39;92470.31;;;28.32;100.00
10484;BME280;5289;42.610;23.362;2022-07-03T04:10:06;92540.13;;;28.77;100.00
10484;BME280;5289;42.610;23.362;2022-07-03T04:12:34;92594.16;;;29.23;100.00
10484;BME280;5289;42.610;23.362;2022-07-03T04:15:00;92646.50;;;29.65;100.00
10484;BME280;5289;42.610;23.362;2022-07-03T04:17:27;92710.41;;;29.96;100.00
10484;BME280;5289;42.610;23.362;2022-07-03T04:19:54;92709.50;;;30.33;100.00
10484;BME280;5289;42.610;23.362;2022-07-03T04:22:20;92838.19;;;30.65;100.00
10484;BME280;5289;42.610;23.362;2022-07-03T04:24:47;92782.69;;;30.95;100.00
10484;BME280;5289;42.610;23.362;2022-07-03T04:27:13;92813.16;;;31.34;100.00
10484;BME280;5289;42.610;23.362;2022-07-03T04:29:42;92767.38;;;31.69;100.00
10484;BME280;5289;42.610;23.362;2022-07-03T04:32:08;92799.00;;;32.10;100.00
10484;BME280;5289;42.610;23.362;2022-07-03T04:34:35;92907.03;;;32.46;100.00
10484;BME280;5289;42.610;23.362;2022-07-03T04:37:02;92925.59;;;32.92;100.00
10484;BME280;5289;42.610;23.362;2022-07-03T04:39:28;92894.28;;;33.38;100.00
10484;BME280;5289;42.610;23.362;2022-07-03T04:41:55;92892.53;;;33.74;100.00
10484;BME280;5289;42.610;23.362;2022-07-03T04:44:22;92913.25;;;34.06;100.00
10484;BME280;5289;42.610;23.362;2022-07-03T04:46:52;92972.28;;;34.42;100.00
10484;BME280;5289;42.610;23.362;2022-07-03T04:49:18;93066.78;;;34.62;100.00
10484;BME280;5289;42.610;23.362;2022-07-03T04:51:45;93042.31;;;34.97;100.00
10484;BME280;5289;42.610;23.362;2022-07-03T04:54:11;92974.84;;;35.33;100.00
10484;BME280;5289;42.610;23.362;2022-07-03T04:56:38;93275.91;;;35.47;100.00
10484;BME280;5289;42.610;23.362;2022-07-03T04:59:04;93037.00;;;36.09;100.00
10484;BME280;5289;42.610;23.362;2022-07-03T05:01:31;93113.38;;;36.53;100.00
10484;BME280;5289;42.610;23.362;2022-07-03T05:03:59;93304.44;;;36.94;100.00
10484;BME280;5289;42.610;23.362;2022-07-03T05:06:25;93259.94;;;37.01;100.00
10484;BME280;5289;42.610;23.362;2022-07-03T05:08:52;93175.13;;;37.31;100.00
10484;BME280;5289;42.610;23.362;2022-07-03T05:11:18;93323.00;;;37.20;100.00
10484;BME280;5289;42.610;23.362;2022-07-03T05:13:45;93390.66;;;37.35;100.00
10484;BME280;5289;42.610;23.362;2022-07-03T05:16:11;93391.81;;;37.53;100.00
10484;BME280;5289;42.610;23.362;2022-07-03T05:18:38;93333.28;;;37.88;100.00
10484;BME280;5289;42.610;23.362;2022-07-03T05:21:06;93342.88;;;37.98;100.00
10484;BME280;5289;42.610;23.362;2022-07-03T05:23:32;93380.03;;;38.37;100.00
10484;BME280;5289;42.610;23.362;2022-07-03T05:25:59;93311.19;;;38.49;100.00
10484;BME280;5289;42.610;23.362;2022-07-03T05:28:25;93491.09;;;38.82;100.00
10484;BME280;5289;42.610;23.362;2022-07-03T05:30:52;93423.38;;;39.23;100.00
10484;BME280;5289;42.610;23.362;2022-07-03T05:33:18;93448.41;;;39.40;100.00
10484;BME280;5289;42.610;23.362;2022-07-03T05:35:45;93489.94;;;38.83;100.00
10484;BME280;5289;42.610;23.362;2022-07-03T05:38:13;93482.22;;;38.23;100.00
10484;BME280;5289;42.610;23.362;2022-07-03T05:40:59;93462.56;;;38.90;100.00
10484;BME280;5289;42.610;23.362;2022-07-03T05:43:26;93485.75;;;39.41;100.00
10484;BME280;5289;42.610;23.362;2022-07-03T05:45:52;93418.94;;;39.74;100.00
10484;BME280;5289;42.610;23.362;2022-07-03T05:48:19;93545.22;;;40.09;100.00
10484;BME280;5289;42.610;23.362;2022-07-03T05:50:46;93484.19;;;40.37;100.00
10484;BME280;5289;42.610;23.362;2022-07-03T05:53:14;93580.66;;;40.41;100.00
10484;BME280;5289;42.610;23.362;2022-07-03T05:55:41;93538.06;;;40.01;100.00
10484;BME280;5289;42.610;23.362;2022-07-03T05:58:08;93466.63;;;40.15;100.00
10484;BME280;5289;42.610;23.362;2022-07-03T06:00:34;93562.00;;;38.72;100.00
10484;BME280;5289;42.610;23.362;2022-07-03T06:03:01;93551.75;;;39.15;100.00
10484;BME280;5289;42.610;23.362;2022-07-03T06:05:28;93579.03;;;38.59;100.00
10484;BME280;5289;42.610;23.362;2022-07-03T06:07:55;93561.31;;;39.47;100.00
10484;BME280;5289;42.610;23.362;2022-07-03T06:10:23;93584.69;;;39.61;100.00
10484;BME280;5289;42.610;23.362;2022-07-03T06:12:49;93578.38;;;40.16;100.00
10484;BME280;5289;42.610;23.362;2022-07-03T06:15:16;93596.72;;;40.05;100.00
10484;BME280;5289;42.610;23.362;2022-07-03T06:17:43;93550.06;;;40.19;100.00
10484;BME280;5289;42.610;23.362;2022-07-03T06:20:10;93572.16;;;40.56;100.00
10484;BME280;5289;42.610;23.362;2022-07-03T06:22:37;93580.19;;;41.09;100.00
10484;BME280;5289;42.610;23.362;2022-07-03T06:25:04;93573.72;;;41.35;100.00
10484;BME280;5289;42.610;23.362;2022-07-03T06:27:32;93605.00;;;40.68;100.00
10484;BME280;5289;42.610;23.362;2022-07-03T06:29:59;93580.63;;;41.14;100.00
10484;BME280;5289;42.610;23.362;2022-07-03T06:32:26;93476.50;;;41.59;100.00
10484;BME280;5289;42.610;23.362;2022-07-03T06:34:52;93540.66;;;42.04;100.00
10484;BME280;5289;42.610;23.362;2022-07-03T06:37:19;93551.84;;;42.39;100.00
10484;BME280;5289;42.610;23.362;2022-07-03T06:39:45;93559.63;;;42.16;100.00
10484;BME280;5289;42.610;23.362;2022-07-03T06:42:12;93593.16;;;42.11;100.00
10484;BME280;5289;42.610;23.362;2022-07-03T06:44:40;93547.47;;;41.58;100.00
10484;BME280;5289;42.610;23.362;2022-07-03T06:47:07;93529.16;;;41.33;100.00
10484;BME280;5289;42.610;23.362;2022-07-03T06:49:34;93583.34;;;41.55;100.00
10484;BME280;5289;42.610;23.362;2022-07-03T06:52:00;93576.25;;;42.19;100.00
10484;BME280;5289;42.610;23.362;2022-07-03T06:54:27;93567.66;;;42.38;100.00
10484;BME280;5289;42.610;23.362;2022-07-03T06:56:54;93592.63;;;42.67;100.00
10484;BME280;5289;42.610;23.362;2022-07-03T06:59:20;93586.81;;;41.45;100.00
10484;BME280;5289;42.610;23.362;2022-07-03T07:01:48;93587.72;;;41.56;100.00
10484;BME280;5289;42.610;23.362;2022-07-03T07:04:15;93595.50;;;41.47;100.00
10484;BME280;5289;42.610;23.362;2022-07-03T07:06:41;93556.97;;;39.46;100.00
10484;BME280;5289;42.610;23.362;2022-07-03T07:09:08;93539.06;;;39.60;100.00
10484;BME280;5289;42.610;23.362;2022-07-03T07:11:34;93557.16;;;39.61;100.00
10484;BME280;5289;42.610;23.362;2022-07-03T07:14:01;93578.13;;;39.69;100.00
10484;BME280;5289;42.610;23.362;2022-07-03T07:16:27;93519.28;;;39.50;100.00
10484;BME280;5289;42.610;23.362;2022-07-03T07:18:56;93524.47;;;38.00;100.00
10484;BME280;5289;42.610;23.362;2022-07-03T07:21:22;93485.41;;;38.48;100.00
10484;BME280;5289;42.610;23.362;2022-07-03T07:23:49;93470.34;;;37.42;100.00
10484;BME280;5289;42.610;23.362;2022-07-03T07:26:15;93413.44;;;35.91;100.00
10484;BME280;5289;42.610;23.362;2022-07-03T07:28:43;93390.72;;;34.79;100.00
10484;BME280;5289;42.610;23.362;2022-07-03T07:31:09;93150.53;;;34.86;100.00
10484;BME280;5289;42.610;23.362;2022-07-03T07:33:36;93364.31;;;35.11;100.00
10484;BME280;5289;42.610;23.362;2022-07-03T07:36:04;93292.28;;;34.63;100.00
10484;BME280;5289;42.610;23.362;2022-07-03T07:38:31;93168.16;;;34.33;100.00
10484;BME280;5289;42.610;23.362;2022-07-03T07:40:58;93335.72;;;35.48;100.00
10484;BME280;5289;42.610;23.362;2022-07-03T07:43:24;93421.69;;;37.55;100.00
10484;BME280;5289;42.610;23.362;2022-07-03T07:45:51;93429.84;;;38.58;100.00
10484;BME280;5289;42.610;23.362;2022-07-03T07:48:18;93491.41;;;39.52;100.00
10484;BME280;5289;42.610;23.362;2022-07-03T07:50:45;93485.66;;;39.94;100.00
10484;BME280;5289;42.610;23.362;2022-07-03T07:53:13;93424.31;;;39.97;100.00
10484;BME280;5289;42.610;23.362;2022-07-03T07:55:39;93493.28;;;40.45;100.00
10484;BME280;5289;42.610;23.362;2022-07-03T07:58:06;93523.97;;;41.24;100.00
10484;BME280;5289;42.610;23.362;2022-07-03T08:00:33;93519.41;;;40.54;100.00
10484;BME280;5289;42.610;23.362;2022-07-03T08:02:59;93537.34;;;40.74;100.00
10484;BME280;5289;42.610;23.362;2022-07-03T08:05:43;93535.91;;;40.17;100.00
10484;BME280;5289;42.610;23.362;2022-07-03T08:08:10;93511.75;;;39.74;100.00
10484;BME280;5289;42.610;23.362;2022-07-03T08:10:39;93483.91;;;40.12;100.00
10484;BME280;5289;42.610;23.362;2022-07-03T08:13:06;93507.97;;;40.96;100.00
10484;BME280;5289;42.610;23.362;2022-07-03T08:15:33;93533.69;;;40.67;100.00
10484;BME280;5289;42.610;23.362;2022-07-03T08:17:59;93469.63;;;40.36;100.00
10484;BME280;5289;42.610;23.362;2022-07-03T08:20:26;93534.94;;;40.73;100.00
10484;BME280;5289;42.610;23.362;2022-07-03T08:22:53;93463.69;;;40.34;100.00
10484;BME280;5289;42.610;23.362;2022-07-03T08:25:19;93505.09;;;39.48;100.00
10484;BME280;5289;42.610;23.362;2022-07-03T08:27:48;93446.56;;;39.81;100.00
10484;BME280;5289;42.610;23.362;2022-07-03T08:30:14;93501.06;;;40.69;100.00
10484;BME280;5289;42.610;23.362;2022-07-03T08:32:42;93459.50;;;40.51;100.00
10484;BME280;5289;42.610;23.362;2022-07-03T08:35:09;93470.50;;;40.11;100.00
10484;BME280;5289;42.610;23.362;2022-07-03T08:37:35;93486.69;;;39.52;100.00
10484;BME280;5289;42.610;23.362;2022-07-03T08:40:02;93477.34;;;39.61;100.00
10484;BME280;5289;42.610;23.362;2022-07-03T08:42:29;93482.53;;;39.95;100.00
10484;BME280;5289;42.610;23.362;2022-07-03T08:44:58;93479.63;;;39.55;100.00
10484;BME280;5289;42.610;23.362;2022-07-03T08:47:27;93416.34;;;40.22;100.00
10484;BME280;5289;42.610;23.362;2022-07-03T08:49:55;93511.34;;;40.75;100.00
10484;BME280;5289;42.610;23.362;2022-07-03T08:52:23;93479.97;;;40.91;100.00
10484;BME280;5289;42.610;23.362;2022-07-03T08:54:49;93479.13;;;41.34;100.00
10484;BME280;5289;42.610;23.362;2022-07-03T08:57:16;93514.78;;;41.09;100.00
10484;BME280;5289;42.610;23.362;2022-07-03T08:59:43;93392.88;;;40.38;100.00
10484;BME280;5289;42.610;23.362;2022-07-03T09:02:13;93449.56;;;39.39;100.00
10484;BME280;5289;42.610;23.362;2022-07-03T09:04:40;93505.28;;;40.22;100.00
10484;BME280;5289;42.610;23.362;2022-07-03T09:07:07;93531.88;;;40.11;100.00
10484;BME280;5289;42.610;23.362;2022-07-03T09:09:33;93464.88;;;38.88;100.00
10484;BME280;5289;42.610;23.362;2022-07-03T09:12:00;93464.63;;;38.28;100.00
10484;BME280;5289;42.610;23.362;2022-07-03T09:14:27;93406.78;;;39.15;100.00
10484;BME280;5289;42.610;23.362;2022-07-03T09:16:53;93491.59;;;39.36;100.00
10484;BME280;5289;42.610;23.362;2022-07-03T09:22:03;93515.19;;;39.37;100.00
10484;BME280;5289;42.610;23.362;2022-07-03T09:24:30;93461.78;;;38.89;100.00
10484;BME280;5289;42.610;23.362;2022-07-03T09:26:59;93507.59;;;39.87;100.00
10484;BME280;5289;42.610;23.362;2022-07-03T09:29:25;93479.38;;;39.11;100.00
10484;BME280;5289;42.610;23.362;2022-07-03T09:31:55;93358.44;;;39.78;100.00
10484;BME280;5289;42.610;23.362;2022-07-03T09:34:21;93505.75;;;39.38;100.00
10484;BME280;5289;42.610;23.362;2022-07-03T09:36:49;93373.69;;;39.72;100.00
10484;BME280;5289;42.610;23.362;2022-07-03T09:39:18;93463.56;;;38.55;100.00
10484;BME280;5289;42.610;23.362;2022-07-03T09:41:52;93476.78;;;36.80;100.00
10484;BME280;5289;42.610;23.362;2022-07-03T09:44:27;93443.72;;;35.02;100.00
10484;BME280;5289;42.610;23.362;2022-07-03T09:47:05;93293.34;;;34.47;100.00
10484;BME280;5289;42.610;23.362;2022-07-03T09:49:39;93433.25;;;33.74;100.00
10484;BME280;5289;42.610;23.362;2022-07-03T09:52:10;93276.75;;;33.55;100.00
10484;BME280;5289;42.610;23.362;2022-07-03T09:54:52;93341.13;;;33.47;100.00
10484;BME280;5289;42.610;23.362;2022-07-03T09:57:19;93385.94;;;33.25;100.00
10484;BME280;5289;42.610;23.362;2022-07-03T09:59:46;93358.81;;;32.87;100.00
10484;BME280;5289;42.610;23.362;2022-07-03T10:02:12;93359.50;;;32.84;100.00
10484;BME280;5289;42.610;23.362;2022-07-03T10:04:39;93376.25;;;32.74;100.00
10484;BME280;5289;42.610;23.362;2022-07-03T10:07:05;93083.78;;;32.87;100.00
10484;BME280;5289;42.610;23.362;2022-07-03T10:09:32;93362.97;;;32.14;100.00
10484;BME280;5289;42.610;23.362;2022-07-03T10:12:01;93381.00;;;31.81;100.00
10484;BME280;5289;42.610;23.362;2022-07-03T10:14:29;93299.56;;;31.84;100.00
10484;BME280;5289;42.610;23.362;2022-07-03T10:16:56;93268.94;;;32.04;100.00
10484;BME280;5289;42.610;23.362;2022-07-03T10:19:25;93342.34;;;32.13;100.00
10484;BME280;5289;42.610;23.362;2022-07-03T10:21:54;93239.88;;;31.67;100.00
10484;BME280;5289;42.610;23.362;2022-07-03T10:24:24;93169.59;;;31.77;100.00
10484;BME280;5289;42.610;23.362;2022-07-03T10:26:51;93295.78;;;31.21;100.00
10484;BME280;5289;42.610;23.362;2022-07-03T10:29:21;93289.47;;;31.47;100.00
10484;BME280;5289;42.610;23.362;2022-07-03T10:31:48;93214.44;;;31.63;100.00
10484;BME280;5289;42.610;23.362;2022-07-03T10:34:15;93270.53;;;32.05;100.00
10484;BME280;5289;42.610;23.362;2022-07-03T10:36:42;93395.75;;;32.17;100.00
10484;BME280;5289;42.610;23.362;2022-07-03T10:39:10;93222.41;;;32.59;100.00
10484;BME280;5289;42.610;23.362;2022-07-03T10:41:41;93225.41;;;32.99;100.00
10484;BME280;5289;42.610;23.362;2022-07-03T10:44:28;93410.75;;;33.45;100.00
10484;BME280;5289;42.610;23.362;2022-07-03T10:50:07;93317.69;;;34.52;100.00
10484;BME280;5289;42.610;23.362;2022-07-03T10:52:33;93381.25;;;34.64;100.00
10484;BME280;5289;42.610;23.362;2022-07-03T10:55:00;93425.88;;;33.75;100.00
10484;BME280;5289;42.610;23.362;2022-07-03T10:57:28;93400.84;;;33.40;100.00
10484;BME280;5289;42.610;23.362;2022-07-03T11:02:40;93338.44;;;32.43;100.00
10484;BME280;5289;42.610;23.362;2022-07-03T11:05:20;93363.34;;;31.49;100.00
10484;BME280;5289;42.610;23.362;2022-07-03T11:08:04;93280.50;;;30.91;100.00
10484;BME280;5289;42.610;23.362;2022-07-03T11:10:31;93061.53;;;30.95;100.00
10484;BME280;5289;42.610;23.362;2022-07-03T11:12:59;93265.16;;;31.12;100.00
10484;BME280;5289;42.610;23.362;2022-07-03T11:15:27;93298.91;;;30.60;100.00
10484;BME280;5289;42.610;23.362;2022-07-03T11:18:08;93336.25;;;30.63;100.00
10484;BME280;5289;42.610;23.362;2022-07-03T11:20:37;93160.69;;;31.01;100.00
10484;BME280;5289;42.610;23.362;2022-07-03T11:23:06;93247.16;;;30.82;100.00
10484;BME280;5289;42.610;23.362;2022-07-03T11:25:38;93318.69;;;30.69;100.00
10484;BME280;5289;42.610;23.362;2022-07-03T11:28:04;93252.78;;;30.60;100.00
10484;BME280;5289;42.610;23.362;2022-07-03T11:30:31;93262.81;;;30.50;100.00
10484;BME280;5289;42.610;23.362;2022-07-03T11:32:58;93181.72;;;30.40;100.00
10484;BME280;5289;42.610;23.362;2022-07-03T11:38:14;93186.22;;;30.19;100.00
10484;BME280;5289;42.610;23.362;2022-07-03T11:40:41;93143.31;;;30.13;100.00
10484;BME280;5289;42.610;23.362;2022-07-03T11:43:09;93127.84;;;30.22;100.00
10484;BME280;5289;42.610;23.362;2022-07-03T11:45:36;93050.72;;;30.48;100.00
10484;BME280;5289;42.610;23.362;2022-07-03T11:48:05;92860.75;;;30.78;100.00
10484;BME280;5289;42.610;23.362;2022-07-03T11:50:38;93129.19;;;30.62;100.00
10484;BME280;5289;42.610;23.362;2022-07-03T11:53:19;93141.84;;;30.49;100.00
10484;BME280;5289;42.610;23.362;2022-07-03T11:55:46;93188.28;;;30.39;100.00
10484;BME280;5289;42.610;23.362;2022-07-03T11:58:13;93111.06;;;30.37;100.00
10484;BME280;5289;42.610;23.362;2022-07-03T12:00:39;93116.31;;;30.42;100.00
10484;BME280;5289;42.610;23.362;2022-07-03T12:03:06;93125.59;;;30.32;100.00
10484;BME280;5289;42.610;23.362;2022-07-03T12:05:33;93149.16;;;30.40;100.00
10484;BME280;5289;42.610;23.362;2022-07-03T12:08:03;93003.13;;;30.60;100.00
10484;BME280;5289;42.610;23.362;2022-07-03T12:10:38;93039.94;;;30.69;100.00
10484;BME280;5289;42.610;23.362;2022-07-03T12:13:17;93181.09;;;30.43;100.00
10484;BME280;5289;42.610;23.362;2022-07-03T12:15:45;93131.63;;;30.29;100.00
10484;BME280;5289;42.610;23.362;2022-07-03T12:18:11;93162.28;;;30.21;100.00
10484;BME280;5289;42.610;23.362;2022-07-03T12:20:38;92939.97;;;30.42;100.00
10484;BME280;5289;42.610;23.362;2022-07-03T12:23:05;93020.81;;;30.66;100.00
10484;BME280;5289;42.610;23.362;2022-07-03T12:25:31;93114.03;;;30.70;100.00
10484;BME280;5289;42.610;23.362;2022-07-03T12:27:59;93028.00;;;30.91;100.00
10484;BME280;5289;42.610;23.362;2022-07-03T12:30:26;93075.78;;;30.83;100.00
10484;BME280;5289;42.610;23.362;2022-07-03T12:32:53;92925.66;;;30.91;100.00
10484;BME280;5289;42.610;23.362;2022-07-03T12:35:20;93154.19;;;30.85;100.00
10484;BME280;5289;42.610;23.362;2022-07-03T12:37:47;92974.31;;;30.97;100.00
10484;BME280;5289;42.610;23.362;2022-07-03T12:40:14;93094.56;;;31.06;100.00
10484;BME280;5289;42.610;23.362;2022-07-03T12:42:44;93139.63;;;30.98;100.00
10484;BME280;5289;42.610;23.362;2022-07-03T12:45:13;93100.94;;;30.72;100.00
10484;BME280;5289;42.610;23.362;2022-07-03T12:47:40;93126.03;;;30.51;100.00
10484;BME280;5289;42.610;23.362;2022-07-03T12:50:07;93084.72;;;30.37;100.00
10484;BME280;5289;42.610;23.362;2022-07-03T12:52:41;93139.47;;;30.48;100.00
10484;BME280;5289;42.610;23.362;2022-07-03T12:55:21;92978.50;;;30.65;100.00
10484;BME280;5289;42.610;23.362;2022-07-03T12:57:48;92932.38;;;30.65;100.00
10484;BME280;5289;42.610;23.362;2022-07-03T13:00:42;92897.00;;;30.82;100.00
10484;BME280;5289;42.610;23.362;2022-07-03T13:03:25;92949.75;;;30.93;100.00
10484;BME280;5289;42.610;23.362;2022-07-03T13:05:52;93143.88;;;30.61;100.00
10484;BME280;5289;42.610;23.362;2022-07-03T13:08:18;93101.56;;;30.69;100.00
10484;BME280;5289;42.610;23.362;2022-07-03T13:10:53;93059.63;;;30.58;100.00